sensor_id;sensor_type;location;lat;lon;timestamp;pressure;altitude;pressure_sealevel;temperature;humidity
1472;BME280;963;42.644;23.336;2023-05-14T00:00:47;94614.75;;;13.96;59.01
1472;BME280;963;42.644;23.336;2023-05-14T00:03:12;94621.63;;;14.07;58.95
1472;BME280;963;42.644;23.336;2023-05-14T00:05:38;94625.81;;;14.12;58.71
1472;BME280;963;42.644;23.336;2023-05-14T00:08:03;94609.13;;;14.04;58.34
1472;BME280;963;42.644;23.336;2023-05-14T00:10:29;94622.75;;;14.06;58.58
1472;BME280;963;42.644;23.336;2023-05-14T00:12:54;94620.84;;;14.03;58.78
1472;BME280;963;42.644;23.336;2023-05-14T00:15:19;94603.84;;;14.04;58.38
1472;BME280;963;42.644;23.336;2023-05-14T00:17:45;94604.16;;;13.96;58.70
1472;BME280;963;42.644;23.336;2023-05-14T00:20:11;94618.94;;;14.00;58.73
1472;BME280;963;42.644;23.336;2023-05-14T00:22:37;94617.34;;;13.92;58.95
1472;BME280;963;42.644;23.336;2023-05-14T00:25:04;94613.69;;;14.07;58.63
1472;BME280;963;42.644;23.336;2023-05-14T00:27:30;94597.72;;;13.93;58.92
1472;BME280;963;42.644;23.336;2023-05-14T00:29:56;94604.19;;;13.99;59.24
1472;BME280;963;42.644;23.336;2023-05-14T00:32:21;94595.03;;;13.86;59.91
1472;BME280;963;42.644;23.336;2023-05-14T00:34:46;94616.53;;;13.85;60.35
1472;BME280;963;42.644;23.336;2023-05-14T00:37:12;94591.06;;;13.66;60.65
1472;BME280;963;42.644;23.336;2023-05-14T00:39:37;94598.69;;;13.74;59.99
1472;BME280;963;42.644;23.336;2023-05-14T00:42:03;94598.34;;;13.76;60.11
1472;BME280;963;42.644;23.336;2023-05-14T00:44:28;94596.69;;;13.61;60.64
1472;BME280;963;42.644;23.336;2023-05-14T00:46:53;94583.19;;;13.73;60.31
1472;BME280;963;42.644;23.336;2023-05-14T00:49:19;94584.91;;;13.55;60.89
1472;BME280;963;42.644;23.336;2023-05-14T00:51:45;94588.34;;;13.59;61.16
1472;BME280;963;42.644;23.336;2023-05-14T00:54:13;94597.53;;;13.72;61.34
1472;BME280;963;42.644;23.336;2023-05-14T00:56:39;94583.91;;;13.70;60.29
1472;BME280;963;42.644;23.336;2023-05-14T00:59:04;94586.16;;;13.68;60.57
1472;BME280;963;42.644;23.336;2023-05-14T01:01:30;94584.00;;;13.77;60.62
1472;BME280;963;42.644;23.336;2023-05-14T01:03:56;94579.25;;;13.53;60.95
1472;BME280;963;42.644;23.336;2023-05-14T01:09:07;94572.50;;;13.59;60.79
1472;BME280;963;42.644;23.336;2023-05-14T01:11:57;94592.88;;;13.58;60.49
1472;BME280;963;42.644;23.336;2023-05-14T01:17:17;94574.69;;;13.50;60.19
1472;BME280;963;42.644;23.336;2023-05-14T01:19:45;94580.44;;;13.59;59.98
1472;BME280;963;42.644;23.336;2023-05-14T01:22:12;94562.41;;;13.31;60.20
1472;BME280;963;42.644;23.336;2023-05-14T01:24:37;94576.81;;;13.37;60.00
1472;BME280;963;42.644;23.336;2023-05-14T01:27:15;94605.66;;;13.53;59.72
1472;BME280;963;42.644;23.336;2023-05-14T01:32:29;94588.22;;;13.44;59.62
1472;BME280;963;42.644;23.336;2023-05-14T01:34:56;94584.53;;;13.53;59.25
1472;BME280;963;42.644;23.336;2023-05-14T01:37:23;94606.06;;;13.55;59.70
1472;BME280;963;42.644;23.336;2023-05-14T01:39:50;94598.88;;;13.52;59.40
1472;BME280;963;42.644;23.336;2023-05-14T01:42:16;94600.50;;;13.67;58.93
1472;BME280;963;42.644;23.336;2023-05-14T01:44:41;94601.25;;;13.67;58.67
1472;BME280;963;42.644;23.336;2023-05-14T01:47:07;94601.63;;;13.66;58.48
1472;BME280;963;42.644;23.336;2023-05-14T01:49:33;94594.78;;;13.61;58.60
1472;BME280;963;42.644;23.336;2023-05-14T01:51:58;94605.72;;;13.60;58.95
1472;BME280;963;42.644;23.336;2023-05-14T01:54:23;94604.13;;;13.48;59.35
1472;BME280;963;42.644;23.336;2023-05-14T01:56:50;94602.91;;;13.38;59.56
1472;BME280;963;42.644;23.336;2023-05-14T01:59:15;94615.22;;;13.27;60.54
1472;BME280;963;42.644;23.336;2023-05-14T02:01:41;94603.00;;;13.15;61.10
1472;BME280;963;42.644;23.336;2023-05-14T02:04:07;94615.03;;;13.13;61.46
1472;BME280;963;42.644;23.336;2023-05-14T02:06:32;94605.63;;;13.15;61.76
1472;BME280;963;42.644;23.336;2023-05-14T02:08:57;94620.66;;;13.08;62.41
1472;BME280;963;42.644;23.336;2023-05-14T02:11:23;94629.84;;;12.91;62.81
1472;BME280;963;42.644;23.336;2023-05-14T02:13:48;94589.63;;;12.68;63.03
1472;BME280;963;42.644;23.336;2023-05-14T02:16:14;94616.66;;;12.61;63.82
1472;BME280;963;42.644;23.336;2023-05-14T02:18:39;94589.50;;;12.61;64.04
1472;BME280;963;42.644;23.336;2023-05-14T02:21:04;94606.28;;;12.75;64.00
1472;BME280;963;42.644;23.336;2023-05-14T02:23:30;94600.88;;;12.65;64.43
1472;BME280;963;42.644;23.336;2023-05-14T02:25:55;94611.69;;;12.86;64.06
1472;BME280;963;42.644;23.336;2023-05-14T02:28:21;94616.22;;;12.86;63.73
1472;BME280;963;42.644;23.336;2023-05-14T02:30:46;94620.06;;;12.92;63.84
1472;BME280;963;42.644;23.336;2023-05-14T02:33:11;94624.63;;;12.95;63.44
1472;BME280;963;42.644;23.336;2023-05-14T02:35:37;94617.66;;;12.79;63.72
1472;BME280;963;42.644;23.336;2023-05-14T02:38:02;94623.41;;;12.89;63.55
1472;BME280;963;42.644;23.336;2023-05-14T02:40:28;94630.69;;;12.99;63.77
1472;BME280;963;42.644;23.336;2023-05-14T02:42:53;94640.41;;;13.18;63.28
1472;BME280;963;42.644;23.336;2023-05-14T02:45:19;94639.03;;;13.31;62.84
1472;BME280;963;42.644;23.336;2023-05-14T02:47:45;94641.41;;;13.39;62.61
1472;BME280;963;42.644;23.336;2023-05-14T02:50:11;94631.31;;;13.49;61.76
1472;BME280;963;42.644;23.336;2023-05-14T02:52:36;94629.66;;;13.37;61.31
1472;BME280;963;42.644;23.336;2023-05-14T02:55:01;94638.59;;;13.25;61.92
1472;BME280;963;42.644;23.336;2023-05-14T02:57:27;94639.84;;;13.05;62.01
1472;BME280;963;42.644;23.336;2023-05-14T02:59:52;94637.06;;;12.64;63.26
1472;BME280;963;42.644;23.336;2023-05-14T03:02:18;94639.56;;;12.83;63.44
1472;BME280;963;42.644;23.336;2023-05-14T03:04:43;94636.84;;;12.76;64.19
1472;BME280;963;42.644;23.336;2023-05-14T03:07:08;94646.03;;;12.86;63.23
1472;BME280;963;42.644;23.336;2023-05-14T03:09:34;94641.13;;;12.88;64.08
1472;BME280;963;42.644;23.336;2023-05-14T03:11:59;94635.00;;;12.80;64.36
1472;BME280;963;42.644;23.336;2023-05-14T03:14:25;94634.69;;;12.86;64.59
1472;BME280;963;42.644;23.336;2023-05-14T03:16:50;94612.81;;;12.85;64.72
1472;BME280;963;42.644;23.336;2023-05-14T03:19:16;94610.81;;;12.75;65.19
1472;BME280;963;42.644;23.336;2023-05-14T03:21:41;94635.63;;;12.70;65.43
1472;BME280;963;42.644;23.336;2023-05-14T03:24:06;94633.72;;;12.41;66.47
1472;BME280;963;42.644;23.336;2023-05-14T03:26:32;94643.00;;;12.31;66.37
1472;BME280;963;42.644;23.336;2023-05-14T03:28:58;94619.22;;;12.28;68.45
1472;BME280;963;42.644;23.336;2023-05-14T03:31:23;94625.56;;;12.00;69.52
1472;BME280;963;42.644;23.336;2023-05-14T03:33:48;94634.19;;;11.97;70.43
1472;BME280;963;42.644;23.336;2023-05-14T03:36:14;94642.09;;;11.97;71.03
1472;BME280;963;42.644;23.336;2023-05-14T03:38:39;94645.84;;;11.96;71.36
1472;BME280;963;42.644;23.336;2023-05-14T03:41:05;94652.06;;;12.07;71.30
1472;BME280;963;42.644;23.336;2023-05-14T03:43:30;94622.53;;;11.98;71.41
1472;BME280;963;42.644;23.336;2023-05-14T03:45:56;94649.81;;;12.09;72.00
1472;BME280;963;42.644;23.336;2023-05-14T03:48:21;94623.00;;;12.04;72.06
1472;BME280;963;42.644;23.336;2023-05-14T03:50:46;94625.56;;;12.00;72.18
1472;BME280;963;42.644;23.336;2023-05-14T03:53:12;94635.31;;;11.96;72.24
1472;BME280;963;42.644;23.336;2023-05-14T03:55:37;94638.09;;;11.84;72.42
1472;BME280;963;42.644;23.336;2023-05-14T03:58:03;94639.06;;;11.76;72.31
1472;BME280;963;42.644;23.336;2023-05-14T04:00:31;94637.13;;;11.73;71.91
1472;BME280;963;42.644;23.336;2023-05-14T04:02:57;94639.69;;;11.88;70.97
1472;BME280;963;42.644;23.336;2023-05-14T04:05:22;94624.78;;;11.77;71.68
1472;BME280;963;42.644;23.336;2023-05-14T04:07:47;94636.63;;;11.64;72.03
1472;BME280;963;42.644;23.336;2023-05-14T04:10:13;94643.22;;;11.77;72.46
1472;BME280;963;42.644;23.336;2023-05-14T04:12:38;94637.78;;;11.66;72.29
1472;BME280;963;42.644;23.336;2023-05-14T04:15:04;94636.63;;;11.64;72.19
1472;BME280;963;42.644;23.336;2023-05-14T04:17:29;94639.94;;;11.61;72.48
1472;BME280;963;42.644;23.336;2023-05-14T04:19:55;94639.13;;;11.56;72.16
1472;BME280;963;42.644;23.336;2023-05-14T04:22:20;94635.81;;;11.40;72.05
1472;BME280;963;42.644;23.336;2023-05-14T04:24:46;94646.44;;;11.67;71.71
1472;BME280;963;42.644;23.336;2023-05-14T04:27:18;94653.47;;;11.59;71.58
1472;BME280;963;42.644;23.336;2023-05-14T04:29:44;94655.53;;;11.50;72.16
1472;BME280;963;42.644;23.336;2023-05-14T04:32:09;94662.97;;;11.44;72.33
1472;BME280;963;42.644;23.336;2023-05-14T04:34:36;94676.56;;;11.46;72.71
1472;BME280;963;42.644;23.336;2023-05-14T04:37:02;94674.84;;;11.35;73.12
1472;BME280;963;42.644;23.336;2023-05-14T04:39:28;94664.38;;;11.38;73.30
1472;BME280;963;42.644;23.336;2023-05-14T04:41:53;94669.63;;;11.38;73.79
1472;BME280;963;42.644;23.336;2023-05-14T04:44:19;94680.25;;;11.42;74.19
1472;BME280;963;42.644;23.336;2023-05-14T04:46:44;94679.59;;;11.48;73.79
1472;BME280;963;42.644;23.336;2023-05-14T04:49:10;94678.25;;;11.54;73.60
1472;BME280;963;42.644;23.336;2023-05-14T04:51:35;94686.03;;;11.70;74.04
1472;BME280;963;42.644;23.336;2023-05-14T04:54:01;94685.78;;;11.56;74.38
1472;BME280;963;42.644;23.336;2023-05-14T04:56:26;94675.72;;;11.62;74.63
1472;BME280;963;42.644;23.336;2023-05-14T04:58:51;94686.69;;;11.64;74.81
1472;BME280;963;42.644;23.336;2023-05-14T05:01:17;94691.31;;;11.51;76.24
1472;BME280;963;42.644;23.336;2023-05-14T05:03:42;94700.84;;;11.55;76.10
1472;BME280;963;42.644;23.336;2023-05-14T05:06:08;94688.84;;;11.58;75.86
1472;BME280;963;42.644;23.336;2023-05-14T05:08:33;94694.31;;;11.49;77.36
1472;BME280;963;42.644;23.336;2023-05-14T05:10:58;94692.06;;;11.51;77.71
1472;BME280;963;42.644;23.336;2023-05-14T05:13:24;94717.47;;;11.59;78.65
1472;BME280;963;42.644;23.336;2023-05-14T05:15:49;94733.97;;;11.56;79.74
1472;BME280;963;42.644;23.336;2023-05-14T05:18:15;94723.16;;;11.42;79.69
1472;BME280;963;42.644;23.336;2023-05-14T05:20:40;94721.75;;;11.48;80.71
1472;BME280;963;42.644;23.336;2023-05-14T05:23:06;94712.06;;;11.33;80.95
1472;BME280;963;42.644;23.336;2023-05-14T05:25:31;94739.63;;;11.39;83.00
1472;BME280;963;42.644;23.336;2023-05-14T05:27:56;94720.38;;;11.35;83.33
1472;BME280;963;42.644;23.336;2023-05-14T05:30:22;94734.03;;;11.21;85.02
1472;BME280;963;42.644;23.336;2023-05-14T05:32:47;94727.00;;;11.10;86.08
1472;BME280;963;42.644;23.336;2023-05-14T05:35:13;94736.28;;;11.04;87.16
1472;BME280;963;42.644;23.336;2023-05-14T05:37:38;94762.28;;;10.89;88.60
1472;BME280;963;42.644;23.336;2023-05-14T05:40:04;94739.59;;;10.50;91.66
1472;BME280;963;42.644;23.336;2023-05-14T05:42:30;94742.97;;;10.34;93.75
1472;BME280;963;42.644;23.336;2023-05-14T05:44:55;94742.03;;;10.11;97.37
1472;BME280;963;42.644;23.336;2023-05-14T05:47:21;94755.00;;;10.04;96.83
1472;BME280;963;42.644;23.336;2023-05-14T05:49:46;94736.44;;;10.13;97.87
1472;BME280;963;42.644;23.336;2023-05-14T05:52:12;94755.78;;;10.20;97.31
1472;BME280;963;42.644;23.336;2023-05-14T05:54:37;94768.97;;;10.08;100.00
1472;BME280;963;42.644;23.336;2023-05-14T05:57:04;94774.47;;;10.03;99.55
1472;BME280;963;42.644;23.336;2023-05-14T05:59:29;94741.50;;;10.06;100.00
1472;BME280;963;42.644;23.336;2023-05-14T06:01:55;94746.59;;;10.14;99.72
1472;BME280;963;42.644;23.336;2023-05-14T06:04:20;94730.13;;;10.01;100.00
1472;BME280;963;42.644;23.336;2023-05-14T06:06:46;94751.47;;;10.00;100.00
1472;BME280;963;42.644;23.336;2023-05-14T06:09:11;94724.00;;;9.97;100.00
1472;BME280;963;42.644;23.336;2023-05-14T06:11:37;94749.22;;;10.14;100.00
1472;BME280;963;42.644;23.336;2023-05-14T06:14:02;94744.81;;;10.18;99.16
1472;BME280;963;42.644;23.336;2023-05-14T06:16:28;94749.84;;;10.23;99.72
1472;BME280;963;42.644;23.336;2023-05-14T06:18:54;94755.16;;;10.11;99.56
1472;BME280;963;42.644;23.336;2023-05-14T06:21:20;94740.09;;;10.24;99.33
1472;BME280;963;42.644;23.336;2023-05-14T06:23:45;94732.44;;;10.19;98.69
1472;BME280;963;42.644;23.336;2023-05-14T06:26:11;94729.50;;;10.20;98.86
1472;BME280;963;42.644;23.336;2023-05-14T06:28:36;94735.69;;;10.28;98.91
1472;BME280;963;42.644;23.336;2023-05-14T06:31:02;94738.25;;;10.24;98.29
1472;BME280;963;42.644;23.336;2023-05-14T06:33:27;94734.41;;;10.06;97.44
1472;BME280;963;42.644;23.336;2023-05-14T06:35:58;94749.28;;;10.02;97.85
1472;BME280;963;42.644;23.336;2023-05-14T06:38:23;94752.13;;;10.09;97.52
1472;BME280;963;42.644;23.336;2023-05-14T06:40:49;94768.56;;;10.06;97.99
1472;BME280;963;42.644;23.336;2023-05-14T06:43:14;94740.50;;;10.10;98.76
1472;BME280;963;42.644;23.336;2023-05-14T06:45:40;94751.47;;;10.00;99.42
1472;BME280;963;42.644;23.336;2023-05-14T06:48:05;94748.16;;;9.87;99.27
1472;BME280;963;42.644;23.336;2023-05-14T06:50:30;94736.81;;;9.99;99.25
1472;BME280;963;42.644;23.336;2023-05-14T06:52:56;94719.34;;;9.91;100.00
1472;BME280;963;42.644;23.336;2023-05-14T06:55:21;94726.91;;;9.92;98.85
1472;BME280;963;42.644;23.336;2023-05-14T06:57:47;94727.91;;;9.88;99.27
1472;BME280;963;42.644;23.336;2023-05-14T07:00:13;94732.50;;;9.91;99.74
1472;BME280;963;42.644;23.336;2023-05-14T07:02:39;94718.50;;;10.02;100.00
1472;BME280;963;42.644;23.336;2023-05-14T07:05:04;94721.47;;;10.01;100.00
1472;BME280;963;42.644;23.336;2023-05-14T07:07:30;94729.31;;;10.13;98.65
1472;BME280;963;42.644;23.336;2023-05-14T07:09:55;94723.56;;;10.23;97.63
1472;BME280;963;42.644;23.336;2023-05-14T07:12:21;94723.72;;;10.30;96.68
1472;BME280;963;42.644;23.336;2023-05-14T07:14:46;94724.56;;;10.34;97.79
1472;BME280;963;42.644;23.336;2023-05-14T07:17:11;94743.69;;;10.47;98.26
1472;BME280;963;42.644;23.336;2023-05-14T07:19:37;94746.81;;;10.53;97.59
1472;BME280;963;42.644;23.336;2023-05-14T07:22:02;94762.31;;;10.74;98.11
1472;BME280;963;42.644;23.336;2023-05-14T07:24:28;94747.13;;;10.67;97.39
1472;BME280;963;42.644;23.336;2023-05-14T07:26:53;94743.81;;;10.86;94.46
1472;BME280;963;42.644;23.336;2023-05-14T07:29:19;94749.84;;;10.71;95.53
1472;BME280;963;42.644;23.336;2023-05-14T07:31:44;94761.53;;;10.73;95.71
1472;BME280;963;42.644;23.336;2023-05-14T07:34:10;94763.94;;;10.78;94.33
1472;BME280;963;42.644;23.336;2023-05-14T07:36:36;94738.22;;;10.72;92.10
1472;BME280;963;42.644;23.336;2023-05-14T07:39:02;94759.69;;;10.58;93.57
1472;BME280;963;42.644;23.336;2023-05-14T07:41:27;94737.44;;;10.08;95.76
1472;BME280;963;42.644;23.336;2023-05-14T07:43:53;94747.81;;;9.89;98.97
1472;BME280;963;42.644;23.336;2023-05-14T07:46:18;94761.22;;;9.99;100.00
1472;BME280;963;42.644;23.336;2023-05-14T07:48:43;94748.34;;;9.94;100.00
1472;BME280;963;42.644;23.336;2023-05-14T07:51:09;94750.53;;;10.20;100.00
1472;BME280;963;42.644;23.336;2023-05-14T07:53:36;94771.06;;;10.02;100.00
1472;BME280;963;42.644;23.336;2023-05-14T07:56:01;94781.41;;;10.23;100.00
1472;BME280;963;42.644;23.336;2023-05-14T07:58:26;94779.09;;;10.22;100.00
1472;BME280;963;42.644;23.336;2023-05-14T08:00:53;94766.69;;;10.07;99.91
1472;BME280;963;42.644;23.336;2023-05-14T08:03:18;94779.41;;;10.05;99.77
1472;BME280;963;42.644;23.336;2023-05-14T08:05:44;94777.50;;;9.89;100.00
1472;BME280;963;42.644;23.336;2023-05-14T08:08:09;94756.56;;;9.93;100.00
1472;BME280;963;42.644;23.336;2023-05-14T08:10:36;94780.63;;;9.95;100.00
1472;BME280;963;42.644;23.336;2023-05-14T08:13:01;94772.91;;;9.86;100.00
1472;BME280;963;42.644;23.336;2023-05-14T08:15:27;94755.78;;;9.77;100.00
1472;BME280;963;42.644;23.336;2023-05-14T08:17:52;94779.78;;;9.91;100.00
1472;BME280;963;42.644;23.336;2023-05-14T08:20:18;94760.44;;;10.11;100.00
1472;BME280;963;42.644;23.336;2023-05-14T08:22:43;94770.25;;;10.14;100.00
1472;BME280;963;42.644;23.336;2023-05-14T08:25:09;94763.81;;;10.12;100.00
1472;BME280;963;42.644;23.336;2023-05-14T08:27:34;94747.88;;;10.05;100.00
1472;BME280;963;42.644;23.336;2023-05-14T08:29:59;94718.00;;;9.97;100.00
1472;BME280;963;42.644;23.336;2023-05-14T08:32:25;94746.44;;;10.07;100.00
1472;BME280;963;42.644;23.336;2023-05-14T08:34:51;94727.56;;;9.89;100.00
1472;BME280;963;42.644;23.336;2023-05-14T08:37:16;94752.78;;;10.06;100.00
1472;BME280;963;42.644;23.336;2023-05-14T08:39:42;94738.47;;;10.19;100.00
1472;BME280;963;42.644;23.336;2023-05-14T08:42:11;94732.97;;;10.40;100.00
1472;BME280;963;42.644;23.336;2023-05-14T08:44:48;94725.25;;;10.31;100.00
1472;BME280;963;42.644;23.336;2023-05-14T08:47:15;94697.84;;;10.32;100.00
1472;BME280;963;42.644;23.336;2023-05-14T08:49:43;94744.28;;;10.41;100.00
1472;BME280;963;42.644;23.336;2023-05-14T08:52:11;94719.66;;;10.49;100.00
1472;BME280;963;42.644;23.336;2023-05-14T08:54:37;94722.19;;;10.29;100.00
1472;BME280;963;42.644;23.336;2023-05-14T08:57:03;94728.16;;;10.42;100.00
1472;BME280;963;42.644;23.336;2023-05-14T08:59:29;94714.75;;;10.31;99.47
1472;BME280;963;42.644;23.336;2023-05-14T09:01:55;94708.13;;;10.22;100.00
1472;BME280;963;42.644;23.336;2023-05-14T09:04:23;94708.97;;;10.10;100.00
1472;BME280;963;42.644;23.336;2023-05-14T09:06:53;94714.22;;;10.10;100.00
1472;BME280;963;42.644;23.336;2023-05-14T09:09:20;94710.13;;;9.97;99.72
1472;BME280;963;42.644;23.336;2023-05-14T09:11:52;94714.91;;;10.23;100.00
1472;BME280;963;42.644;23.336;2023-05-14T09:14:18;94709.75;;;10.26;99.89
1472;BME280;963;42.644;23.336;2023-05-14T09:16:44;94704.31;;;10.35;100.00
1472;BME280;963;42.644;23.336;2023-05-14T09:19:11;94700.50;;;10.32;99.67
1472;BME280;963;42.644;23.336;2023-05-14T09:21:38;94715.34;;;10.41;99.31
1472;BME280;963;42.644;23.336;2023-05-14T09:24:04;94730.09;;;10.29;100.00
1472;BME280;963;42.644;23.336;2023-05-14T09:26:33;94733.75;;;10.25;100.00
1472;BME280;963;42.644;23.336;2023-05-14T09:29:00;94714.81;;;10.19;100.00
1472;BME280;963;42.644;23.336;2023-05-14T09:31:30;94707.19;;;10.30;100.00
1472;BME280;963;42.644;23.336;2023-05-14T09:33:56;94722.97;;;10.30;100.00
1472;BME280;963;42.644;23.336;2023-05-14T09:36:22;94702.00;;;10.33;100.00
1472;BME280;963;42.644;23.336;2023-05-14T09:38:49;94718.06;;;10.44;100.00
1472;BME280;963;42.644;23.336;2023-05-14T09:41:15;94713.13;;;10.58;100.00
1472;BME280;963;42.644;23.336;2023-05-14T09:43:41;94684.78;;;10.52;98.46
1472;BME280;963;42.644;23.336;2023-05-14T09:46:06;94686.41;;;10.56;97.88
1472;BME280;963;42.644;23.336;2023-05-14T09:48:32;94676.66;;;10.41;98.12
1472;BME280;963;42.644;23.336;2023-05-14T09:50:57;94689.91;;;10.29;98.39
1472;BME280;963;42.644;23.336;2023-05-14T09:53:22;94679.72;;;10.43;100.00
1472;BME280;963;42.644;23.336;2023-05-14T09:55:48;94688.75;;;10.61;98.62
1472;BME280;963;42.644;23.336;2023-05-14T09:58:13;94710.00;;;10.53;97.40
1472;BME280;963;42.644;23.336;2023-05-14T10:00:43;94693.66;;;10.63;98.30
1472;BME280;963;42.644;23.336;2023-05-14T10:03:13;94692.41;;;10.57;96.04
1472;BME280;963;42.644;23.336;2023-05-14T10:05:40;94663.00;;;10.71;96.28
1472;BME280;963;42.644;23.336;2023-05-14T10:10:37;94656.88;;;10.82;96.02
1472;BME280;963;42.644;23.336;2023-05-14T10:13:03;94655.44;;;10.50;98.29
1472;BME280;963;42.644;23.336;2023-05-14T10:15:42;94674.28;;;10.52;95.75
1472;BME280;963;42.644;23.336;2023-05-14T10:18:12;94655.94;;;10.40;97.54
1472;BME280;963;42.644;23.336;2023-05-14T10:20:39;94638.81;;;10.46;97.67
1472;BME280;963;42.644;23.336;2023-05-14T10:23:06;94639.25;;;10.48;96.11
1472;BME280;963;42.644;23.336;2023-05-14T10:25:33;94655.72;;;10.45;97.76
1472;BME280;963;42.644;23.336;2023-05-14T10:27:59;94644.78;;;10.27;98.74
1472;BME280;963;42.644;23.336;2023-05-14T10:30:25;94657.06;;;10.39;99.17
1472;BME280;963;42.644;23.336;2023-05-14T10:33:06;94665.28;;;10.53;100.00
1472;BME280;963;42.644;23.336;2023-05-14T10:36:02;94649.16;;;10.54;98.96
1472;BME280;963;42.644;23.336;2023-05-14T10:38:33;94670.88;;;10.51;97.88
1472;BME280;963;42.644;23.336;2023-05-14T10:41:04;94659.34;;;10.40;98.91
1472;BME280;963;42.644;23.336;2023-05-14T10:43:31;94637.38;;;10.32;99.08
1472;BME280;963;42.644;23.336;2023-05-14T10:46:00;94643.06;;;10.34;100.00
1472;BME280;963;42.644;23.336;2023-05-14T10:48:27;94638.47;;;10.47;100.00
1472;BME280;963;42.644;23.336;2023-05-14T10:50:52;94635.00;;;10.43;100.00
1472;BME280;963;42.644;23.336;2023-05-14T10:53:19;94650.19;;;10.69;100.00
1472;BME280;963;42.644;23.336;2023-05-14T10:55:54;94654.47;;;10.93;100.00
1472;BME280;963;42.644;23.336;2023-05-14T10:58:19;94625.31;;;11.02;100.00
1472;BME280;963;42.644;23.336;2023-05-14T11:00:46;94634.09;;;11.28;99.02
1472;BME280;963;42.644;23.336;2023-05-14T11:03:12;94619.94;;;11.37;96.95
1472;BME280;963;42.644;23.336;2023-05-14T11:05:39;94603.22;;;11.48;97.13
1472;BME280;963;42.644;23.336;2023-05-14T11:08:07;94626.09;;;11.44;96.91
1472;BME280;963;42.644;23.336;2023-05-14T11:10:34;94638.72;;;11.35;97.70
1472;BME280;963;42.644;23.336;2023-05-14T11:12:59;94637.56;;;11.33;97.46
1472;BME280;963;42.644;23.336;2023-05-14T11:15:25;94631.50;;;11.51;97.12
1472;BME280;963;42.644;23.336;2023-05-14T11:17:52;94634.97;;;11.55;94.87
1472;BME280;963;42.644;23.336;2023-05-14T11:20:18;94643.22;;;11.54;94.36
1472;BME280;963;42.644;23.336;2023-05-14T11:22:46;94642.38;;;11.50;92.42
1472;BME280;963;42.644;23.336;2023-05-14T11:25:13;94645.81;;;11.31;94.54
1472;BME280;963;42.644;23.336;2023-05-14T11:27:40;94636.38;;;11.30;96.18
1472;BME280;963;42.644;23.336;2023-05-14T11:30:15;94663.28;;;11.20;93.32
1472;BME280;963;42.644;23.336;2023-05-14T11:32:43;94643.19;;;10.92;95.97
1472;BME280;963;42.644;23.336;2023-05-14T11:35:09;94626.00;;;10.79;97.69
1472;BME280;963;42.644;23.336;2023-05-14T11:37:35;94631.91;;;10.92;97.29
1472;BME280;963;42.644;23.336;2023-05-14T11:40:00;94634.19;;;10.93;97.32
1472;BME280;963;42.644;23.336;2023-05-14T11:42:26;94641.78;;;10.99;98.97
1472;BME280;963;42.644;23.336;2023-05-14T11:44:52;94636.13;;;11.16;97.01
1472;BME280;963;42.644;23.336;2023-05-14T11:47:19;94628.59;;;11.37;95.62
1472;BME280;963;42.644;23.336;2023-05-14T11:49:45;94640.69;;;11.19;97.14
1472;BME280;963;42.644;23.336;2023-05-14T11:52:12;94614.88;;;11.47;96.85
1472;BME280;963;42.644;23.336;2023-05-14T11:54:39;94628.06;;;11.70;95.89
1472;BME280;963;42.644;23.336;2023-05-14T11:57:08;94616.31;;;11.87;95.27
1472;BME280;963;42.644;23.336;2023-05-14T11:59:34;94621.53;;;12.06;96.25
1472;BME280;963;42.644;23.336;2023-05-14T12:02:00;94612.00;;;11.98;94.94
1472;BME280;963;42.644;23.336;2023-05-14T12:04:27;94611.88;;;12.17;91.91
1472;BME280;963;42.644;23.336;2023-05-14T12:06:53;94604.84;;;11.99;90.94
1472;BME280;963;42.644;23.336;2023-05-14T12:09:21;94614.88;;;11.89;92.22
1472;BME280;963;42.644;23.336;2023-05-14T12:11:48;94611.03;;;11.87;91.44
1472;BME280;963;42.644;23.336;2023-05-14T12:14:17;94601.03;;;11.96;91.60
1472;BME280;963;42.644;23.336;2023-05-14T12:16:43;94588.78;;;12.07;91.76
1472;BME280;963;42.644;23.336;2023-05-14T12:19:09;94576.84;;;12.17;92.86
1472;BME280;963;42.644;23.336;2023-05-14T12:21:38;94581.47;;;12.24;92.53
1472;BME280;963;42.644;23.336;2023-05-14T12:24:04;94578.00;;;12.46;93.11
1472;BME280;963;42.644;23.336;2023-05-14T12:26:33;94594.25;;;12.21;91.97
1472;BME280;963;42.644;23.336;2023-05-14T12:28:59;94567.88;;;12.21;91.22
1472;BME280;963;42.644;23.336;2023-05-14T12:31:35;94568.16;;;12.43;92.18
1472;BME280;963;42.644;23.336;2023-05-14T12:34:01;94571.94;;;12.42;91.46
1472;BME280;963;42.644;23.336;2023-05-14T12:36:28;94548.59;;;12.17;90.17
1472;BME280;963;42.644;23.336;2023-05-14T12:39:00;94572.16;;;12.30;90.68
1472;BME280;963;42.644;23.336;2023-05-14T12:41:26;94549.22;;;12.34;90.88
1472;BME280;963;42.644;23.336;2023-05-14T12:43:52;94543.72;;;12.46;89.50
1472;BME280;963;42.644;23.336;2023-05-14T12:46:17;94542.25;;;12.22;89.04
1472;BME280;963;42.644;23.336;2023-05-14T12:48:43;94553.63;;;12.26;88.93
1472;BME280;963;42.644;23.336;2023-05-14T12:51:08;94553.00;;;12.36;89.13
1472;BME280;963;42.644;23.336;2023-05-14T12:53:34;94568.75;;;12.29;87.86
1472;BME280;963;42.644;23.336;2023-05-14T12:55:59;94550.44;;;12.13;88.20
1472;BME280;963;42.644;23.336;2023-05-14T12:58:25;94557.16;;;11.84;90.18
1472;BME280;963;42.644;23.336;2023-05-14T13:00:50;94572.00;;;11.93;90.02
1472;BME280;963;42.644;23.336;2023-05-14T13:03:16;94561.72;;;11.65;91.67
1472;BME280;963;42.644;23.336;2023-05-14T13:05:41;94566.75;;;11.50;92.54
1472;BME280;963;42.644;23.336;2023-05-14T13:08:08;94528.34;;;11.49;93.62
1472;BME280;963;42.644;23.336;2023-05-14T13:10:34;94577.06;;;11.36;93.54
1472;BME280;963;42.644;23.336;2023-05-14T13:13:00;94553.06;;;11.41;95.64
1472;BME280;963;42.644;23.336;2023-05-14T13:15:27;94543.97;;;11.39;95.04
1472;BME280;963;42.644;23.336;2023-05-14T13:17:52;94532.28;;;11.59;93.80
1472;BME280;963;42.644;23.336;2023-05-14T13:20:17;94535.84;;;11.47;93.07
1472;BME280;963;42.644;23.336;2023-05-14T13:22:43;94523.63;;;11.36;93.81
1472;BME280;963;42.644;23.336;2023-05-14T13:25:09;94534.47;;;11.53;93.27